Time;durP1;ratioP1;P1;durP2;ratioP2;P2;SDS_P1;SDS_P2;PMS_P1;PMS_P2;Temp;Humidity;BMP_temperature;BMP_pressure;BME280_temperature;BME280_humidity;BME280_pressure;Samples;Min_cycle;Max_cycle;Signal;HPM_P1;HPM_P2
2023/04/09 00:02:16;;;;;;;22.23;18.00;;;;;;;7.29;100.00;18459.25;5093483;28;20191;-61
2023/04/09 00:04:43;;;;;;;28.20;19.93;;;;;;;7.14;100.00;18381.38;5093493;28;20189;-63
2023/04/09 00:07:12;;;;;;;34.77;21.37;;;;;;;7.34;100.00;13148.53;5093502;28;20634;-62
2023/04/09 00:09:39;;;;;;;26.23;18.77;;;;;;;7.53;100.00;13447.75;5091939;28;20199;-61
2023/04/09 00:12:06;;;;;;;24.03;18.53;;;;;;;7.69;100.00;14350.50;5093076;28;20235;-63
2023/04/09 00:14:37;;;;;;;25.63;17.70;;;;;;;7.83;100.00;15912.31;5093034;28;20184;-61
2023/04/09 00:17:03;;;;;;;18.23;16.10;;;;;;;7.95;100.00;16417.97;5093210;28;20211;-62
2023/04/09 00:19:30;;;;;;;19.53;17.63;;;;;;;8.04;100.00;16713.19;5093413;28;20528;-64
2023/04/09 00:21:57;;;;;;;18.77;16.83;;;;;;;8.12;100.00;19981.16;5093030;28;20199;-62
2023/04/09 00:24:24;;;;;;;24.20;17.40;;;;;;;8.06;100.00;22753.94;5092958;28;20196;-62
2023/04/09 00:26:52;;;;;;;18.27;15.67;;;;;;;8.07;100.00;21450.34;5093096;28;20641;-62
2023/04/09 00:29:19;;;;;;;18.07;16.10;;;;;;;8.12;100.00;20171.28;5093280;28;20184;-62
2023/04/09 00:31:47;;;;;;;20.23;15.37;;;;;;;8.26;100.00;19383.69;5093005;28;20247;-62
2023/04/09 00:34:14;;;;;;;19.30;15.67;;;;;;;8.21;100.00;18538.78;5093085;28;20179;-63
2023/04/09 00:36:41;;;;;;;17.63;15.20;;;;;;;8.31;100.00;17191.97;5092650;28;20211;-62
2023/04/09 00:39:07;;;;;;;17.83;15.00;;;;;;;8.37;100.00;16038.97;5093159;28;20595;-63
2023/04/09 00:41:34;;;;;;;16.70;14.77;;;;;;;8.54;100.00;15404.31;5092654;28;20187;-63
2023/04/09 00:44:01;;;;;;;16.90;14.27;;;;;;;8.58;100.00;15085.53;5092831;28;20571;-62
2023/04/09 00:46:28;;;;;;;14.60;13.10;;;;;;;8.53;100.00;15084.06;5092588;28;20622;-62
2023/04/09 00:48:56;;;;;;;17.57;14.27;;;;;;;8.64;100.00;13807.63;5092439;28;20180;-63
2023/04/09 00:51:23;;;;;;;16.20;14.60;;;;;;;8.77;100.00;13171.16;5092686;28;20195;-62
2023/04/09 00:53:50;;;;;;;15.17;13.77;;;;;;;8.68;100.00;13168.88;5092538;28;20199;-67
2023/04/09 00:56:20;;;;;;;15.53;14.03;;;;;;;8.67;100.00;12529.03;5092451;28;20243;-62
2023/04/09 00:58:47;;;;;;;15.43;13.97;;;;;;;8.58;100.00;11887.38;5092574;28;20188;-63
2023/04/09 01:01:14;;;;;;;14.10;12.73;;;;;;;8.79;100.00;11572.66;5092656;28;20191;-61
2023/04/09 01:03:42;;;;;;;15.13;13.73;;;;;;;8.75;100.00;11571.69;5093023;28;20601;-61
2023/04/09 01:06:17;;;;;;;13.87;12.77;;;;;;;8.87;100.00;10935.13;5092798;28;20234;-62
2023/04/09 01:08:51;;;;;;;15.37;12.70;;;;;;;8.89;100.00;10935.56;5092145;28;20218;-63
2023/04/09 01:11:30;;;;;;;13.37;12.23;;;;;;;9.00;100.00;11577.72;5092343;28;20290;-62
2023/04/09 01:14:05;;;;;;;14.30;12.87;;;;;;;9.13;100.00;11900.91;5092450;28;20192;-63
2023/04/09 01:16:34;;;;;;;12.83;11.73;;;;;;;9.23;100.00;11903.22;5092027;28;20257;-62
2023/04/09 01:19:09;;;;;;;13.33;11.90;;;;;;;9.31;100.00;12225.25;5091011;28;20637;-62
2023/04/09 01:21:40;;;;;;;12.77;11.53;;;;;;;9.29;100.00;13505.06;5091974;28;20198;-62
2023/04/09 01:24:19;;;;;;;13.70;12.47;;;;;;;9.36;100.00;13827.31;5091869;28;20240;-63
2023/04/09 01:26:55;;;;;;;15.10;12.83;;;;;;;9.34;100.00;13506.56;5091850;28;20206;-62
2023/04/09 01:29:25;;;;;;;13.97;11.93;;;;;;;9.41;100.00;13508.47;5092246;28;20245;-62
2023/04/09 01:31:54;;;;;;;18.73;14.67;;;;;;;9.26;100.00;17027.97;5092087;28;20544;-62
2023/04/09 01:34:21;;;;;;;17.67;14.10;;;;;;;9.09;100.00;17983.91;5091764;28;20183;-62
2023/04/09 01:36:52;;;;;;;16.83;15.17;;;;;;;9.07;100.00;18944.84;5091585;28;20208;-63
2023/04/09 01:39:19;;;;;;;17.30;15.50;;;;;;;8.96;100.00;18620.34;5091951;28;20188;-62
2023/04/09 01:41:48;;;;;;;16.30;14.67;;;;;;;8.94;100.00;17978.72;5091960;28;20656;-63
2023/04/09 01:44:16;;;;;;;20.57;15.70;;;;;;;8.93;100.00;16696.78;5091706;28;20188;-62
2023/04/09 01:46:47;;;;;;;22.57;15.03;;;;;;;8.85;100.00;17334.75;5091955;28;20183;-62
2023/04/09 01:49:15;;;;;;;16.83;15.13;;;;;;;8.77;100.00;17972.84;5092178;28;20294;-62
2023/04/09 01:51:42;;;;;;;16.90;15.07;;;;;;;8.94;100.00;18299.00;5091625;28;20268;-63
2023/04/09 01:54:09;;;;;;;17.70;15.03;;;;;;;8.94;100.00;18299.16;5091589;28;20262;-62
2023/04/09 01:56:43;;;;;;;17.63;15.53;;;;;;;8.81;100.00;17653.88;5091482;28;20208;-63
2023/04/09 01:59:10;;;;;;;15.37;13.87;;;;;;;8.71;100.00;14129.47;5091559;28;20515;-61
2023/04/09 02:01:43;;;;;;;17.00;15.27;;;;;;;8.66;100.00;11889.44;5094176;28;20192;-63
2023/04/09 02:04:17;;;;;;;19.73;15.00;;;;;;;8.58;100.00;11248.25;5095910;28;20543;-62
2023/04/09 02:06:52;;;;;;;16.40;14.80;;;;;;;8.36;100.00;8049.78;5095545;28;20187;-62
2023/04/09 02:09:21;;;;;;;17.17;15.37;;;;;;;8.60;100.00;7415.66;5095648;28;20179;-62
2023/04/09 02:11:50;;;;;;;17.53;15.70;;;;;;;8.70;100.00;8056.00;5095297;28;20257;-63
2023/04/09 02:14:18;;;;;;;16.07;14.37;;;;;;;8.78;100.00;9335.16;5095534;28;20373;-63
2023/04/09 02:16:46;;;;;;;15.93;14.33;;;;;;;8.80;100.00;10933.50;5095616;28;20212;-62
2023/04/09 02:19:15;;;;;;;16.57;14.77;;;;;;;8.82;100.00;11893.28;5095347;28;20222;-62
2023/04/09 02:21:43;;;;;;;14.73;13.17;;;;;;;8.90;100.00;12854.69;5095565;28;20226;-63
2023/04/09 02:24:10;;;;;;;13.10;11.90;;;;;;;8.87;100.00;13493.88;5095602;28;20271;-62
2023/04/09 02:26:37;;;;;;;16.97;14.83;;;;;;;8.81;100.00;12852.34;5095492;28;20563;-62
2023/04/09 02:29:03;;;;;;;12.50;11.60;;;;;;;8.82;100.00;13172.47;5095390;28;20674;-62
2023/04/09 02:31:30;;;;;;;12.87;11.27;;;;;;;8.70;100.00;13489.41;5095011;28;20184;-61
2023/04/09 02:33:57;;;;;;;13.93;12.60;;;;;;;8.74;100.00;13490.22;5095083;28;20196;-62
2023/04/09 02:36:26;;;;;;;10.77;9.87;;;;;;;8.69;100.00;14448.84;5094876;28;20204;-63
2023/04/09 02:38:53;;;;;;;8.50;8.10;;;;;;;8.74;100.00;15410.09;5095233;28;20184;-62
2023/04/09 02:41:20;;;;;;;9.83;9.07;;;;;;;8.77;100.00;15731.25;5095135;28;20195;-62
2023/04/09 02:43:47;;;;;;;11.47;10.47;;;;;;;8.65;100.00;18609.50;5095247;28;20642;-64
2023/04/09 02:46:14;;;;;;;12.53;11.37;;;;;;;8.42;100.00;20523.16;5095064;28;20195;-63
2023/04/09 02:48:41;;;;;;;12.60;11.60;;;;;;;8.65;100.00;20852.59;5095189;28;20613;-66
2023/04/09 02:51:08;;;;;;;12.80;10.93;;;;;;;8.48;100.00;23731.16;5094740;28;20192;-63
2023/04/09 02:53:38;;;;;;;14.50;10.53;;;;;;;8.39;100.00;26293.97;5094705;28;20184;-62
2023/04/09 02:56:05;;;;;;;16.33;10.10;;;;;;;8.29;100.00;25968.25;5094856;28;20642;-62
2023/04/09 02:58:33;;;;;;;10.17;9.40;;;;;;;8.13;100.00;25639.84;5094945;28;20184;-63
2023/04/09 03:01:00;;;;;;;10.63;9.63;;;;;;;8.10;100.00;23714.84;5095076;28;20184;-62
2023/04/09 03:03:27;;;;;;;10.83;9.83;;;;;;;8.09;100.00;21791.53;5094554;28;20192;-63
2023/04/09 03:05:54;;;;;;;11.03;10.20;;;;;;;7.94;100.00;20824.72;5094710;28;20579;-62
2023/04/09 03:08:21;;;;;;;10.20;9.30;;;;;;;7.95;100.00;19224.56;5094422;28;20199;-63
2023/04/09 03:10:49;;;;;;;12.73;10.00;;;;;;;8.04;100.00;18907.97;5094677;28;20677;-62
2023/04/09 03:13:16;;;;;;;11.10;10.33;;;;;;;8.05;100.00;20188.63;5093031;28;20224;-62
2023/04/09 03:15:43;;;;;;;10.63;9.57;;;;;;;8.05;100.00;21149.50;5094616;28;20645;-62
2023/04/09 03:18:10;;;;;;;10.40;9.47;;;;;;;8.06;100.00;22110.66;5094030;28;20227;-63
2023/04/09 03:20:38;;;;;;;11.90;9.60;;;;;;;8.05;100.00;23071.69;5094474;28;20550;-63
2023/04/09 03:23:05;;;;;;;11.17;10.03;;;;;;;7.88;100.00;24666.38;5094447;28;20607;-62
2023/04/09 03:25:32;;;;;;;12.13;11.10;;;;;;;7.98;100.00;26274.41;5094264;28;20536;-62
2023/04/09 03:28:00;;;;;;;11.33;10.13;;;;;;;7.90;100.00;27874.13;5093992;28;20184;-63
2023/04/09 03:30:29;;;;;;;10.33;9.50;;;;;;;7.88;100.00;29477.91;5093928;28;20180;-62
2023/04/09 03:32:58;;;;;;;9.67;8.97;;;;;;;7.86;100.00;30439.63;5094171;28;20184;-63
2023/04/09 03:35:25;;;;;;;14.07;9.37;;;;;;;7.82;100.00;31401.25;5094185;28;20188;-62
2023/04/09 03:37:52;;;;;;;10.47;8.53;;;;;;;7.67;100.00;32998.44;5093786;28;20299;-62
2023/04/09 03:40:18;;;;;;;11.97;8.47;;;;;;;7.57;100.00;33313.69;5093952;28;20191;-64
2023/04/09 03:42:45;;;;;;;8.50;7.70;;;;;;;7.47;100.00;32665.19;5094043;28;20279;-61
2023/04/09 03:45:13;;;;;;;8.23;7.63;;;;;;;7.31;100.00;30409.88;5094151;27;20237;-63
2023/04/09 03:47:40;;;;;;;8.07;7.67;;;;;;;7.28;100.00;26881.94;5093945;28;20184;-62
2023/04/09 03:50:08;;;;;;;10.70;9.07;;;;;;;7.26;100.00;24959.03;5093612;28;20180;-62
2023/04/09 03:52:34;;;;;;;7.93;7.33;;;;;;;7.31;100.00;24961.09;5093538;28;20189;-62
2023/04/09 03:55:03;;;;;;;8.33;7.60;;;;;;;7.33;100.00;24642.00;5093430;28;20192;-65
2023/04/09 03:57:30;;;;;;;8.27;7.70;;;;;;;7.29;100.00;24639.94;5093649;28;20203;-63
2023/04/09 03:59:56;;;;;;;6.97;6.67;;;;;;;7.08;100.00;24630.63;5093408;28;20191;-63
2023/04/09 04:02:26;;;;;;;6.90;6.40;;;;;;;7.32;100.00;23040.56;5093361;28;20196;-63
2023/04/09 04:04:52;;;;;;;6.63;6.13;;;;;;;7.43;100.00;24005.59;5093273;28;20188;-62
2023/04/09 04:07:19;;;;;;;6.70;6.40;;;;;;;7.43;100.00;26889.09;5093594;28;20227;-63
2023/04/09 04:09:46;;;;;;;6.83;6.43;;;;;;;7.45;100.00;27530.91;5093535;28;20188;-63
2023/04/09 04:12:13;;;;;;;7.00;6.67;;;;;;;7.60;100.00;27218.06;5093080;28;20239;-64
2023/04/09 04:14:40;;;;;;;6.57;6.03;;;;;;;7.94;100.00;33013.84;5093393;28;20526;-62
2023/04/09 04:17:07;;;;;;;6.83;6.33;;;;;;;7.97;100.00;44604.97;5092971;28;20204;-62
2023/04/09 04:19:35;;;;;;;8.23;6.47;;;;;;;8.17;100.00;54959.28;5093009;28;20180;-62
2023/04/09 04:22:02;;;;;;;6.57;6.03;;;;;;;8.67;100.00;62139.22;5093391;28;20184;-62
2023/04/09 04:24:29;;;;;;;9.33;6.03;;;;;;;9.01;100.00;76818.44;5092933;28;20642;-62
2023/04/09 04:26:56;;;;;;;12.90;6.27;;;;;;;9.21;100.00;95488.34;5093137;28;20184;-63
2023/04/09 04:29:22;;;;;;;11.60;7.10;;;;;;;9.14;100.00;125778.19;5093117;28;20192;-62
2023/04/09 04:31:49;;;;;;;5.67;5.27;;;;;;;9.40;100.00;138398.00;5092725;28;20192;-63
2023/04/09 04:34:16;;;;;;;6.97;6.30;;;;;;;9.47;100.00;148422.81;5093028;28;20655;-62
2023/04/09 04:36:44;;;;;;;6.50;6.20;;;;;;;9.68;100.00;148475.88;5092842;28;20673;-62
2023/04/09 04:39:11;;;;;;;7.23;5.83;;;;;;;10.06;100.00;148570.63;5092610;28;20181;-63
2023/04/09 04:41:38;;;;;;;5.20;5.00;;;;;;;10.33;100.00;148637.66;5092487;28;20312;-63
2023/04/09 04:44:05;;;;;;;4.30;4.00;;;;;;;10.25;100.00;148618.72;5092879;28;20188;-62
2023/04/09 04:46:32;;;;;;;4.10;3.87;;;;;;;9.91;100.00;148534.00;5092771;28;20184;-62
2023/04/09 04:48:58;;;;;;;4.13;3.77;;;;;;;9.88;100.00;148526.44;5092390;28;20195;-63
2023/04/09 04:51:26;;;;;;;4.60;4.03;;;;;;;10.10;100.00;148582.00;5093041;28;20207;-63
2023/04/09 04:53:54;;;;;;;4.03;3.70;;;;;;;10.12;100.00;148584.53;5092574;28;20191;-63
2023/04/09 04:56:21;;;;;;;6.20;4.50;;;;;;;10.61;100.00;148707.19;5092377;28;20184;-63
2023/04/09 04:58:48;;;;;;;4.70;4.37;;;;;;;10.52;100.00;148686.94;5092167;28;20254;-63
2023/04/09 05:01:15;;;;;;;4.40;4.20;;;;;;;10.74;100.00;148740.03;5092202;28;20188;-62
2023/04/09 05:03:42;;;;;;;4.43;4.23;;;;;;;10.74;100.00;148741.28;5092170;28;20180;-63
2023/04/09 05:06:09;;;;;;;4.33;4.13;;;;;;;11.30;100.00;148881.66;5092189;28;20586;-63
2023/04/09 05:08:36;;;;;;;5.13;4.60;;;;;;;12.37;100.00;149148.69;5092027;28;20203;-62
2023/04/09 05:11:04;;;;;;;5.30;4.87;;;;;;;13.91;100.00;149535.06;5092175;28;20188;-62
2023/04/09 05:13:31;;;;;;;5.03;4.63;;;;;;;13.67;100.00;149474.22;5091986;28;20188;-63
2023/04/09 05:15:58;;;;;;;5.70;5.23;;;;;;;14.28;100.00;149626.31;5091972;28;20187;-63
2023/04/09 05:18:24;;;;;;;5.70;5.40;;;;;;;14.62;100.00;149712.59;5092248;28;20226;-62
2023/04/09 05:20:51;;;;;;;5.53;5.23;;;;;;;14.50;100.00;149682.16;5092157;28;20635;-63
2023/04/09 05:23:18;;;;;;;6.23;5.83;;;;;;;15.29;100.00;149881.28;5092202;28;20184;-62
2023/04/09 05:25:45;;;;;;;6.40;6.07;;;;;;;15.72;100.00;149987.91;5091795;28;20184;-61
2023/04/09 05:28:15;;;;;;;7.20;6.60;;;;;;;15.73;100.00;149990.47;5092120;28;20184;-63
2023/04/09 05:30:45;;;;;;;6.93;6.43;;;;;;;16.34;100.00;150144.03;5091767;28;20216;-61
2023/04/09 05:33:12;;;;;;;7.57;6.97;;;;;;;15.40;100.00;149909.16;5091711;28;20188;-62
2023/04/09 05:35:39;;;;;;;7.33;6.83;;;;;;;14.82;100.00;149763.31;5091036;28;20188;-62
2023/04/09 05:38:06;;;;;;;7.37;6.83;;;;;;;14.97;100.00;149801.38;5091874;28;20696;-63
2023/04/09 05:40:34;;;;;;;8.07;7.33;;;;;;;15.52;100.00;149938.44;5091689;28;20214;-63
2023/04/09 05:43:01;;;;;;;8.00;7.23;;;;;;;16.57;100.00;150202.50;5091599;28;20191;-62
2023/04/09 05:45:29;;;;;;;7.30;6.70;;;;;;;17.57;100.00;150454.03;5091914;28;20180;-62
2023/04/09 05:47:56;;;;;;;7.80;7.20;;;;;;;17.12;100.00;150340.97;5091823;28;20184;-63
2023/04/09 05:50:23;;;;;;;6.40;5.80;;;;;;;18.61;98.01;150716.06;5091844;28;20184;-62
2023/04/09 05:52:50;;;;;;;9.33;6.17;;;;;;;19.39;86.77;150911.94;5091547;28;20192;-62
2023/04/09 05:55:17;;;;;;;8.17;6.67;;;;;;;19.30;86.75;150887.78;5091843;28;20211;-62
2023/04/09 05:57:44;;;;;;;7.70;7.07;;;;;;;18.41;95.26;150665.16;5091778;28;20661;-63
2023/04/09 06:00:12;;;;;;;17.17;8.90;;;;;;;18.44;98.48;150671.47;5091817;28;20320;-63
2023/04/09 06:02:40;;;;;;;19.17;10.50;;;;;;;17.82;100.00;150516.41;5091626;28;20190;-65
2023/04/09 06:05:08;;;;;;;13.93;9.97;;;;;;;17.28;100.00;150380.34;5091804;28;20180;-63
2023/04/09 06:07:34;;;;;;;16.17;10.40;;;;;;;17.44;100.00;150421.00;5091967;28;20184;-62
2023/04/09 06:10:01;;;;;;;11.87;11.00;;;;;;;17.17;100.00;150352.41;5091730;28;20189;-63
2023/04/09 06:12:28;;;;;;;10.50;9.50;;;;;;;17.53;100.00;150443.88;5091388;28;20559;-63
2023/04/09 06:14:55;;;;;;;9.73;9.03;;;;;;;18.33;100.00;150643.53;5091291;28;20188;-62
2023/04/09 06:17:22;;;;;;;84.33;18.30;;;;;;;17.85;100.00;150524.00;5091449;28;20586;-63
2023/04/09 06:19:50;;;;;;;11.53;7.23;;;;;;;17.57;100.00;150454.03;5091551;28;20519;-63
2023/04/09 06:22:17;;;;;;;7.37;6.80;;;;;;;17.10;100.00;150334.63;5091317;28;20184;-63
2023/04/09 06:24:43;;;;;;;5.57;5.37;;;;;;;15.62;100.00;149962.50;5091197;28;20188;-63
2023/04/09 06:27:10;;;;;;;7.50;7.00;;;;;;;15.09;100.00;149831.81;5091589;28;20562;-63
2023/04/09 06:29:37;;;;;;;6.50;6.17;;;;;;;14.45;100.00;149669.47;5090262;28;20585;-62
2023/04/09 06:32:05;;;;;;;6.93;6.53;;;;;;;14.31;100.00;149633.91;5091219;28;20192;-63
2023/04/09 06:34:32;;;;;;;7.60;7.20;;;;;;;13.99;100.00;149555.34;5091065;28;20195;-62
2023/04/09 06:37:00;;;;;;;7.70;7.40;;;;;;;14.16;100.00;149597.19;5091102;28;20195;-62
2023/04/09 06:39:27;;;;;;;8.07;7.77;;;;;;;14.09;100.00;149580.69;5091037;28;20204;-62
2023/04/09 06:41:54;;;;;;;8.37;7.60;;;;;;;14.47;100.00;149674.56;5090985;28;20279;-62
2023/04/09 06:44:23;;;;;;;8.07;7.77;;;;;;;14.28;100.00;149626.31;5091078;28;20192;-62
2023/04/09 06:46:50;;;;;;;7.50;7.20;;;;;;;14.32;100.00;149636.47;5092582;28;20223;-61
2023/04/09 06:49:17;;;;;;;8.43;8.03;;;;;;;14.55;100.00;149694.84;5095057;28;20211;-62
2023/04/09 06:51:43;;;;;;;8.30;7.80;;;;;;;14.71;100.00;149735.44;5094766;28;20187;-61
2023/04/09 06:54:13;;;;;;;11.67;8.10;;;;;;;15.66;100.00;149973.94;5094829;28;20279;-62
2023/04/09 06:56:40;;;;;;;8.70;8.20;;;;;;;16.22;100.00;150113.56;5094703;28;20207;-62
2023/04/09 06:59:07;;;;;;;9.77;8.57;;;;;;;16.61;100.00;150212.66;5094474;28;20219;-62
2023/04/09 07:01:34;;;;;;;8.93;8.33;;;;;;;17.23;100.00;150367.63;5094492;28;20188;-61
2023/04/09 07:04:01;;;;;;;8.60;7.80;;;;;;;16.99;100.00;150307.94;5094446;28;20195;-64
2023/04/09 07:06:28;;;;;;;7.37;6.93;;;;;;;17.09;100.00;150333.34;5094414;28;20215;-64
2023/04/09 07:08:55;;;;;;;8.27;7.43;;;;;;;16.15;100.00;150097.09;5094557;28;20184;-61
2023/04/09 07:11:23;;;;;;;6.47;6.17;;;;;;;15.55;100.00;149946.03;5093110;28;20232;-62
2023/04/09 07:13:50;;;;;;;7.63;6.97;;;;;;;14.90;100.00;149782.31;5094634;28;20631;-61
2023/04/09 07:16:17;;;;;;;7.13;6.57;;;;;;;14.77;100.00;149750.63;5094718;28;20196;-61
2023/04/09 07:18:44;;;;;;;6.80;6.10;;;;;;;14.60;100.00;149707.50;5094454;28;20215;-62
2023/04/09 07:21:11;;;;;;;6.70;6.23;;;;;;;14.37;100.00;149649.19;5094596;28;20628;-63
2023/04/09 07:23:38;;;;;;;7.37;6.90;;;;;;;13.86;100.00;149522.41;5094339;28;20188;-62
2023/04/09 07:26:05;;;;;;;7.90;7.50;;;;;;;13.77;100.00;149498.31;5094303;28;20180;-62
2023/04/09 07:28:34;;;;;;;7.60;7.10;;;;;;;13.96;100.00;149547.72;5094184;28;20302;-62
2023/04/09 07:31:01;;;;;;;7.33;6.93;;;;;;;13.82;100.00;149512.25;5094011;28;20198;-62
2023/04/09 07:33:28;;;;;;;7.23;6.83;;;;;;;14.02;100.00;149561.66;5094231;28;20622;-61
2023/04/09 07:35:55;;;;;;;7.67;7.00;;;;;;;14.20;100.00;149607.31;5094344;28;20179;-62
2023/04/09 07:38:22;;;;;;;8.17;7.67;;;;;;;14.07;100.00;149575.63;5094033;28;20566;-61
2023/04/09 07:40:49;;;;;;;6.63;6.33;;;;;;;13.81;100.00;149508.44;5093935;28;20187;-63
2023/04/09 07:43:16;;;;;;;7.57;7.10;;;;;;;13.73;100.00;149489.44;5093682;28;20184;-61
2023/04/09 07:45:44;;;;;;;8.87;8.17;;;;;;;13.85;100.00;149518.56;5093945;28;20192;-61
2023/04/09 07:48:11;;;;;;;7.10;6.77;;;;;;;13.85;100.00;149519.84;5093911;28;20188;-61
2023/04/09 07:50:38;;;;;;;8.60;7.53;;;;;;;13.97;100.00;149548.97;5093614;28;20226;-63
2023/04/09 07:53:05;;;;;;;7.77;7.37;;;;;;;14.04;100.00;149568.03;5093875;28;20586;-61
2023/04/09 07:55:32;;;;;;;7.67;7.33;;;;;;;14.30;100.00;149632.63;5092272;28;20194;-62
2023/04/09 07:57:59;;;;;;;7.90;7.60;;;;;;;14.63;100.00;149715.13;5092837;28;20204;-62
2023/04/09 08:00:26;;;;;;;8.67;8.10;;;;;;;14.25;100.00;149618.72;5093337;28;20275;-63
2023/04/09 08:02:54;;;;;;;8.00;7.50;;;;;;;14.00;100.00;149557.84;5093552;28;20191;-62
2023/04/09 08:05:21;;;;;;;9.13;8.67;;;;;;;13.91;100.00;149533.81;5093557;28;20191;-62
2023/04/09 08:07:48;;;;;;;9.30;8.73;;;;;;;13.99;100.00;149555.34;5093550;28;20180;-63
2023/04/09 08:10:15;;;;;;;7.97;7.47;;;;;;;14.09;100.00;149580.69;5093758;28;20188;-61
2023/04/09 08:12:42;;;;;;;8.83;8.23;;;;;;;14.13;100.00;149589.59;5093413;28;20602;-63
2023/04/09 08:15:09;;;;;;;10.30;9.03;;;;;;;14.00;100.00;149557.84;5093428;28;20738;-62
2023/04/09 08:17:36;;;;;;;9.37;8.77;;;;;;;14.02;100.00;149561.66;5093749;28;20192;-62
2023/04/09 08:20:06;;;;;;;8.63;8.03;;;;;;;13.65;100.00;149469.19;5093539;28;20281;-62
2023/04/09 08:22:33;;;;;;;8.73;8.33;;;;;;;13.45;100.00;149418.50;5093358;28;20676;-61
2023/04/09 08:25:00;;;;;;;8.80;8.20;;;;;;;13.35;100.00;149393.16;5092944;28;20184;-63
2023/04/09 08:27:27;;;;;;;9.10;8.33;;;;;;;13.45;100.00;149418.50;5093510;28;20271;-63
2023/04/09 08:29:54;;;;;;;8.83;8.43;;;;;;;13.43;100.00;149413.41;5092769;28;20226;-61
2023/04/09 08:32:21;;;;;;;6.90;6.47;;;;;;;13.46;100.00;149421.00;5093075;28;20188;-62
2023/04/09 08:34:49;;;;;;;6.70;6.40;;;;;;;13.35;100.00;149394.44;5092806;28;20227;-63
2023/04/09 08:37:17;;;;;;;7.10;6.70;;;;;;;12.60;100.00;149205.69;5092975;28;20261;-61
2023/04/09 08:39:44;;;;;;;7.67;7.37;;;;;;;13.16;100.00;149347.53;5092509;28;20212;-62
2023/04/09 08:42:14;;;;;;;7.00;6.70;;;;;;;13.27;100.00;149375.44;5092956;28;20579;-62
2023/04/09 08:44:41;;;;;;;6.40;6.20;;;;;;;13.44;100.00;149417.22;5092474;28;20282;-62
2023/04/09 08:47:10;;;;;;;7.67;7.07;;;;;;;13.44;100.00;149417.22;5092431;28;20188;-63
2023/04/09 08:49:39;;;;;;;6.93;6.63;;;;;;;13.50;100.00;149431.13;5092884;28;20191;-62
2023/04/09 08:52:06;;;;;;;6.93;6.63;;;;;;;13.32;100.00;149386.84;5092371;28;20184;-62
2023/04/09 08:54:35;;;;;;;7.77;7.47;;;;;;;13.05;100.00;149318.38;5092325;28;20269;-63
2023/04/09 08:57:05;;;;;;;7.53;7.13;;;;;;;13.43;100.00;149413.41;5092692;28;20188;-63
2023/04/09 08:59:35;;;;;;;6.70;6.30;;;;;;;13.61;100.00;149460.31;5092712;28;20207;-63
2023/04/09 09:02:10;;;;;;;7.70;7.30;;;;;;;13.32;100.00;149386.84;5092699;28;20187;-63
2023/04/09 09:04:47;;;;;;;6.60;6.30;;;;;;;13.40;100.00;149405.81;5092720;28;20646;-61
2023/04/09 09:07:15;;;;;;;6.70;6.40;;;;;;;13.45;100.00;149419.72;5092103;28;20183;-62
2023/04/09 09:09:52;;;;;;;6.73;6.43;;;;;;;13.51;100.00;149434.94;5091937;28;20184;-61
2023/04/09 09:12:34;;;;;;;7.27;6.70;;;;;;;13.32;100.00;149385.56;5091890;28;20706;-62
2023/04/09 09:15:01;;;;;;;6.73;6.33;;;;;;;13.44;100.00;149417.22;5091963;28;20188;-62
2023/04/09 09:17:28;;;;;;;6.80;6.50;;;;;;;13.27;100.00;149374.16;5092223;28;20223;-61
2023/04/09 09:19:55;;;;;;;6.80;6.50;;;;;;;13.13;100.00;149338.69;5090986;28;20641;-62
2023/04/09 09:22:21;;;;;;;6.30;6.00;;;;;;;13.30;100.00;149380.47;5091945;28;20184;-62
2023/04/09 09:24:51;;;;;;;6.57;6.37;;;;;;;13.53;100.00;149440.03;5092222;28;20560;-61
2023/04/09 09:27:35;;;;;;;7.17;6.77;;;;;;;13.63;100.00;149465.34;5092124;28;20597;-62
2023/04/09 09:30:03;;;;;;;5.90;5.70;;;;;;;13.91;100.00;149535.06;5090518;28;20210;-61
2023/04/09 09:32:30;;;;;;;7.73;7.20;;;;;;;13.50;100.00;149432.41;5091687;28;20256;-62
2023/04/09 09:35:02;;;;;;;7.10;6.80;;;;;;;13.71;100.00;149484.34;5092024;28;20188;-62
2023/04/09 09:37:30;;;;;;;7.57;6.97;;;;;;;13.67;100.00;149474.22;5092087;28;20565;-63
2023/04/09 09:39:59;;;;;;;6.80;6.50;;;;;;;13.77;100.00;149498.31;5091764;28;20204;-62
2023/04/09 09:42:26;;;;;;;7.10;6.80;;;;;;;13.69;100.00;149479.31;5091977;28;20187;-62
2023/04/09 09:44:54;;;;;;;7.47;6.87;;;;;;;13.65;100.00;149470.44;5091702;28;20199;-61
2023/04/09 09:47:24;;;;;;;6.90;6.50;;;;;;;13.96;100.00;149547.72;5091934;28;20255;-62
2023/04/09 09:49:51;;;;;;;6.87;6.47;;;;;;;14.07;100.00;149574.34;5092169;28;20543;-62
2023/04/09 09:52:26;;;;;;;7.53;7.00;;;;;;;14.32;100.00;149637.72;5091553;28;20271;-62
2023/04/09 09:54:54;;;;;;;6.77;6.40;;;;;;;14.52;100.00;149688.50;5091722;28;20184;-61
2023/04/09 09:57:25;;;;;;;7.07;6.77;;;;;;;14.74;100.00;149741.75;5091578;28;20180;-62
2023/04/09 09:59:58;;;;;;;6.60;6.30;;;;;;;14.86;100.00;149773.44;5091697;28;20732;-62
2023/04/09 10:02:29;;;;;;;6.57;6.27;;;;;;;15.19;100.00;149855.88;5091741;28;20279;-62
2023/04/09 10:05:00;;;;;;;7.23;6.73;;;;;;;14.98;100.00;149802.59;5091720;28;20194;-61
2023/04/09 10:07:28;;;;;;;7.63;7.23;;;;;;;15.19;100.00;149854.66;5091433;28;20274;-62
2023/04/09 10:09:56;;;;;;;7.80;7.40;;;;;;;15.11;100.00;149834.38;5091597;28;20184;-61
2023/04/09 10:12:26;;;;;;;7.63;7.13;;;;;;;15.49;100.00;149930.75;5091145;28;20278;-62
2023/04/09 10:14:55;;;;;;;6.93;6.63;;;;;;;15.51;100.00;149937.16;5091275;28;20231;-63
2023/04/09 10:17:21;;;;;;;6.50;6.30;;;;;;;15.30;100.00;149882.56;5091426;28;20241;-63
2023/04/09 10:19:59;;;;;;;7.67;7.17;;;;;;;15.56;100.00;149948.59;5091283;28;20255;-63
2023/04/09 10:22:29;;;;;;;6.37;6.07;;;;;;;15.45;100.00;149921.88;5093577;28;20275;-61
2023/04/09 10:24:58;;;;;;;6.57;6.27;;;;;;;15.07;100.00;149826.72;5095482;28;20211;-61
2023/04/09 10:27:27;;;;;;;6.43;6.13;;;;;;;15.38;100.00;149902.84;5095212;28;20191;-61
2023/04/09 10:29:54;;;;;;;7.30;6.70;;;;;;;15.46;100.00;149923.13;5095378;28;20184;-62
2023/04/09 10:32:22;;;;;;;6.63;6.33;;;;;;;15.34;100.00;149892.69;5095544;28;20554;-61
2023/04/09 10:34:50;;;;;;;7.03;6.73;;;;;;;15.23;100.00;149866.06;5094979;28;20180;-61
2023/04/09 10:37:22;;;;;;;7.50;7.00;;;;;;;15.08;100.00;149829.28;5094990;28;20262;-61
2023/04/09 10:39:50;;;;;;;6.50;6.20;;;;;;;14.98;100.00;149803.88;5094878;28;20231;-61
2023/04/09 10:42:20;;;;;;;7.17;6.83;;;;;;;15.35;100.00;149895.25;5094872;28;20184;-62
2023/04/09 10:45:05;;;;;;;6.90;6.60;;;;;;;15.53;100.00;149941.00;5095127;28;20634;-62
2023/04/09 10:47:33;;;;;;;7.07;6.77;;;;;;;15.51;100.00;149935.88;5095140;28;20180;-61
2023/04/09 10:50:14;;;;;;;7.73;7.20;;;;;;;15.91;100.00;150036.16;5093926;28;20244;-61
2023/04/09 10:52:41;;;;;;;7.10;6.80;;;;;;;15.82;100.00;150014.59;5094701;28;20184;-61
2023/04/09 10:55:08;;;;;;;7.00;6.70;;;;;;;15.81;100.00;150012.03;5094673;28;20191;-60
2023/04/09 10:57:35;;;;;;;6.63;6.33;;;;;;;15.61;100.00;149961.28;5094573;28;20187;-62
2023/04/09 11:00:04;;;;;;;7.00;6.37;;;;;;;15.73;100.00;149991.75;5094746;28;20204;-66
2023/04/09 11:03:06;;;;;;;6.83;6.53;;;;;;;15.55;100.00;149946.03;5094771;28;20620;-61
2023/04/09 11:05:34;;;;;;;7.10;6.80;;;;;;;14.94;100.00;149793.75;5094941;28;20221;-61
2023/04/09 11:08:07;;;;;;;6.87;6.47;;;;;;;14.63;100.00;149716.41;5093286;28;20188;-60
2023/04/09 11:10:34;;;;;;;7.37;6.77;;;;;;;14.45;100.00;149669.47;5094664;28;20631;-61
2023/04/09 11:13:01;;;;;;;6.93;6.63;;;;;;;14.19;100.00;149604.78;5094313;28;20230;-61
2023/04/09 11:15:29;;;;;;;6.67;6.27;;;;;;;13.86;100.00;149521.13;5094231;28;20191;-62
2023/04/09 11:17:57;;;;;;;7.93;7.00;;;;;;;13.65;100.00;149469.19;5094513;28;20215;-61
2023/04/09 11:20:26;;;;;;;7.93;7.50;;;;;;;13.48;100.00;149427.38;5094381;28;20674;-61
2023/04/09 11:22:54;;;;;;;6.70;6.40;;;;;;;13.30;100.00;149381.75;5094430;28;20581;-65
2023/04/09 11:25:22;;;;;;;7.57;6.90;;;;;;;13.17;100.00;149350.06;5094078;28;20184;-62